EFKU

Kuopio Airport

Kuopio / Siilinjärvi, Finland
METAR EFKU 151820Z AUTO 23004KT 6000 -SG OVC005 M08/M09 Q1036 REFZRA REFZRA
Observed Flight Rules
Dec-15 @ 18:20 UTC (34 minutes ago) Instrument Flight Rules
Wind Visibility Clouds Conditions
230° at 4 knots 6,003 meters
  • Overcast at 500' AGL
  • Light Snow grains
  • Freezing
  • Rain
Temperatures Readings
Current -8°C / 18°F
Dewpoint -9°C / 16°F
Humidity 93%
Altimeter 30.59" Hg
Pressure 1036 hPa
Elevation 102
METAR EFKU 151820Z AUTO 23004KT 6000 -SG OVC005 M08/M09 Q1036 REFZRA REFZRA
Observed Flight Rules
Dec-15 @ 18:20 UTC
(34 minutes ago)
IFR
Wind Visibility
230° at 4 knots 6,003 meters
Clouds
  • Overcast at 500' AGL
Conditions
  • Light Snow grains
  • Freezing
  • Rain
Temperature Dewpoint
-8°C / 18°F -9°C / 16°F
Humidity Altimeter Pressure
93% 30.59" Hg 1036 hPa